»·PEaware :: N777R KBUR-KLAS

N777R :: KBUR-KLAS

FLIGHT INFORMATION

Flight Status: Arrived
Operator: Privately registered:
United States
More flights under this callsign
Pilot: Jim W. (29150)
Aircraft: CIRRUS VISIONJET
(SF50)
More flights by this aircraft type
Origin: KBUR Bob Hope-Burbank
United States
Destination: KLAS McCarran Intl
United States
More flights between these airports :: More routes between these airports
Route: +VNY3 DAG KEPEC6
File this flight plan on PilotEdge
Remarks:
Altitude:
(Current/Filed)
11,000ft
Speed:
(Current/Filed)
230kts
Departed: 21-May-20 05:31 PM
Arrived: 21-May-20 06:58 PM
Distance/Time
Traveled:
193nm/1:27
Distance/Time
To Go:
Arrived

Flight Plot

Page will automatically refresh every two minutes.


Map Options




Map Legend


Flown Route
Filed Route
Departure Airport
Arrival Airport
Navaid (VOR, NDB)
Fix

Horizontal Profiles

Position Reports

Time Latitude Longitude Heading Altitude Ground
Speed
21-May-20 16:48 34.210986 -118.358186 0 760ft 0kts
21-May-20 16:49 34.210986 -118.358186 306 760ft 0kts
21-May-20 16:50 34.210986 -118.358186 306 760ft 0kts
21-May-20 16:51 34.210986 -118.358186 306 760ft 0kts
21-May-20 16:52 34.210986 -118.358186 306 760ft 0kts
21-May-20 16:53 34.210986 -118.358186 306 760ft 0kts
21-May-20 16:54 34.210986 -118.358186 306 760ft 0kts
21-May-20 16:55 34.210986 -118.358186 306 760ft 0kts
21-May-20 16:56 34.210986 -118.358186 306 760ft 0kts
21-May-20 16:57 34.210986 -118.358186 306 760ft 0kts
21-May-20 16:58 34.210986 -118.358186 306 760ft 0kts
21-May-20 16:59 34.210986 -118.358186 306 760ft 0kts
21-May-20 17:00 34.210986 -118.358186 306 760ft 0kts
21-May-20 17:01 34.210986 -118.358186 306 760ft 0kts
21-May-20 17:02 34.210986 -118.358186 306 760ft 0kts
21-May-20 17:03 34.210986 -118.358186 306 760ft 0kts
21-May-20 17:04 34.210986 -118.358186 306 760ft 0kts
21-May-20 17:05 34.210986 -118.358186 306 760ft 0kts
21-May-20 17:06 34.210986 -118.358186 306 760ft 0kts
21-May-20 17:07 34.210986 -118.358186 306 760ft 0kts
21-May-20 17:08 34.210986 -118.358186 306 760ft 0kts
21-May-20 17:09 34.210986 -118.358186 306 760ft 0kts
21-May-20 17:10 34.210986 -118.358186 306 760ft 0kts
21-May-20 17:11 34.210986 -118.358186 306 760ft 0kts
21-May-20 17:13 34.210986 -118.358186 306 760ft 0kts
21-May-20 17:14 34.210986 -118.358186 306 760ft 0kts
21-May-20 17:15 34.210986 -118.358186 306 760ft 0kts
21-May-20 17:16 34.210986 -118.358186 306 760ft 0kts
21-May-20 17:20 34.210986 -118.358186 306 760ft 0kts
21-May-20 17:21 34.210986 -118.358186 306 760ft 0kts
21-May-20 17:22 34.210986 -118.358186 306 760ft 0kts
21-May-20 17:23 34.210986 -118.358186 306 760ft 0kts
21-May-20 17:24 34.210986 -118.358186 306 760ft 0kts
21-May-20 17:25 34.210986 -118.358186 306 760ft 0kts
21-May-20 17:26 34.211585 -118.359066 307 763ft 0kts
21-May-20 17:27 34.211592 -118.359076 307 763ft 0kts
21-May-20 17:28 34.211595 -118.359082 307 763ft 0kts
21-May-20 17:29 34.210949 -118.360166 169 765ft 29kts
21-May-20 17:30 34.191177 -118.360734 222 1967ft 101kts
21-May-20 17:31 34.172981 -118.382395 224 3378ft 106kts
21-May-20 17:32 34.151163 -118.408511 224 3953ft 148kts
21-May-20 17:33 34.124005 -118.440982 224 3946ft 163kts
21-May-20 17:34 34.094647 -118.476093 224 3944ft 157kts
21-May-20 17:35 34.070311 -118.510189 265 3946ft 142kts
21-May-20 17:36 34.093574 -118.526394 1 4587ft 121kts
21-May-20 17:37 34.126322 -118.525200 1 5459ft 177kts
21-May-20 17:38 34.171475 -118.523562 1 6280ft 233kts
21-May-20 17:39 34.223239 -118.521680 2 7251ft 252kts
21-May-20 17:40 34.269719 -118.486744 36 8319ft 256kts
21-May-20 17:41 34.315646 -118.443844 31 9284ft 253kts
21-May-20 17:42 34.364938 -118.406719 31 10099ft 252kts
21-May-20 17:43 34.415019 -118.368937 31 10934ft 250kts
21-May-20 17:44 34.464304 -118.329766 46 11773ft 246kts
21-May-20 17:45 34.500949 -118.272722 52 12648ft 242kts
21-May-20 17:46 34.536416 -118.216085 52 12947ft 260kts
21-May-20 17:47 34.573117 -118.157339 52 13002ft 255kts
21-May-20 17:48 34.608692 -118.100312 52 13009ft 253kts
21-May-20 17:50 34.634224 -118.033245 80 13009ft 253kts
21-May-20 17:51 34.642943 -117.958868 82 13010ft 262kts
21-May-20 17:52 34.651622 -117.879594 82 13009ft 269kts
21-May-20 17:53 34.660044 -117.801906 82 13008ft 270kts
21-May-20 17:54 34.671334 -117.723776 76 12992ft 267kts
21-May-20 17:55 34.688140 -117.646292 86 13008ft 267kts
21-May-20 17:56 34.703284 -117.569540 71 13009ft 268kts
21-May-20 17:57 34.724020 -117.492785 71 13008ft 268kts
21-May-20 17:58 34.744589 -117.416687 71 13008ft 268kts
21-May-20 17:59 34.764459 -117.343223 71 13009ft 268kts
21-May-20 18:00 34.784597 -117.268799 71 13008ft 268kts
21-May-20 18:01 34.805219 -117.192626 71 13008ft 268kts
21-May-20 18:02 34.825701 -117.117012 71 13009ft 268kts
21-May-20 18:03 34.846434 -117.040515 71 13008ft 268kts
21-May-20 18:04 34.867253 -116.963709 71 13009ft 268kts
21-May-20 18:05 34.887848 -116.887781 71 13068ft 266kts
21-May-20 18:05 34.904963 -116.824579 71 13073ft 268kts
21-May-20 18:07 34.929060 -116.735642 71 13073ft 270kts
21-May-20 18:08 34.950026 -116.658307 71 13073ft 271kts
21-May-20 18:08 34.967608 -116.593487 71 13073ft 271kts
21-May-20 18:09 35.004731 -116.526508 46 13073ft 270kts
21-May-20 18:11 35.059347 -116.457639 45 13073ft 269kts
21-May-20 18:11 35.099169 -116.407911 45 13073ft 268kts
21-May-20 18:12 35.145269 -116.350278 45 13073ft 268kts
21-May-20 18:13 35.192893 -116.290628 45 13073ft 268kts
21-May-20 18:14 35.240355 -116.231077 45 13073ft 268kts
21-May-20 18:15 35.287700 -116.171567 45 13073ft 268kts
21-May-20 18:16 35.334496 -116.112643 45 13073ft 268kts
21-May-20 18:17 35.380830 -116.054197 45 13073ft 268kts
21-May-20 18:18 35.426618 -115.996340 45 13073ft 268kts
21-May-20 18:19 35.471992 -115.938905 45 13073ft 269kts
21-May-20 18:20 35.517290 -115.881469 45 13073ft 270kts
21-May-20 18:21 35.563037 -115.823362 45 13073ft 271kts
21-May-20 18:22 35.607855 -115.766334 45 13073ft 271kts
21-May-20 18:23 35.652320 -115.709661 45 13073ft 271kts
21-May-20 18:24 35.696725 -115.652969 45 13073ft 270kts
21-May-20 18:25 35.740876 -115.596525 45 13072ft 269kts
21-May-20 18:26 35.800753 -115.573542 3 13096ft 267kts
21-May-20 18:27 35.865849 -115.569506 2 13100ft 268kts
21-May-20 18:28 35.929965 -115.565898 2 13100ft 270kts
21-May-20 18:29 35.981306 -115.530084 62 12627ft 247kts
21-May-20 18:30 36.001455 -115.468789 68 11210ft 242kts
21-May-20 18:31 36.021111 -115.406826 68 11100ft 240kts
21-May-20 18:32 36.029398 -115.353250 93 10687ft 218kts
21-May-20 18:33 36.025767 -115.301426 95 9208ft 232kts
21-May-20 18:34 36.021709 -115.245593 95 9096ft 184kts
21-May-20 18:35 36.018268 -115.197978 94 9101ft 172kts
21-May-20 18:36 36.014932 -115.148798 94 9100ft 176kts
21-May-20 18:37 36.011502 -115.098430 94 9100ft 178kts
21-May-20 18:38 36.008256 -115.046175 94 8332ft 204kts
21-May-20 18:39 36.005398 -114.991253 81 8026ft 189kts
21-May-20 18:40 36.038615 -114.965507 21 7043ft 218kts
21-May-20 18:41 36.084851 -114.943004 21 6098ft 213kts
21-May-20 18:42 36.126685 -114.922617 21 6098ft 188kts
21-May-20 18:43 36.165326 -114.903767 21 6099ft 176kts
21-May-20 18:44 36.203839 -114.884967 21 6100ft 171kts
21-May-20 18:45 36.241111 -114.879553 311 6106ft 168kts
21-May-20 18:46 36.234571 -114.921239 241 6101ft 167kts
21-May-20 18:47 36.216772 -114.961920 238 6098ft 164kts
21-May-20 18:48 36.200209 -114.999674 241 6129ft 128kts
21-May-20 18:49 36.188348 -115.026372 236 5595ft 110kts
21-May-20 18:50 36.176363 -115.052028 233 4691ft 106kts
21-May-20 18:51 36.163488 -115.074545 229 3904ft 101kts
21-May-20 18:52 36.149647 -115.095829 226 3384ft 108kts
21-May-20 18:53 36.136688 -115.115084 224 3127ft 109kts
21-May-20 18:54 36.123662 -115.135001 229 3061ft 84kts
21-May-20 18:55 36.112363 -115.148601 210 2703ft 84kts
21-May-20 18:56 36.098290 -115.157158 204 2135ft 73kts
21-May-20 18:57 36.089826 -115.162093 205 2123ft 19kts
21-May-20 18:58 36.089348 -115.163349 283 2128ft 0kts
21-May-20 18:59 36.089516 -115.164221 260 2132ft 11kts
21-May-20 19:00 36.085020 -115.167213 204 2152ft 28kts
21-May-20 19:01 36.081473 -115.170489 270 2168ft 10kts

Navigation Log

Ident Type
Flight plan parsing failed, navigation log unavailable